sensor_id;sensor_type;location;lat;lon;timestamp;P1;durP1;ratioP1;P2;durP2;ratioP2
54384;SDS011;40284;52.878;5.998;2022-10-31T00:01:33;22.52;;;13.63;;
54384;SDS011;40284;52.878;5.998;2022-10-31T00:04:00;20.58;;;13.00;;
54384;SDS011;40284;52.878;5.998;2022-10-31T00:06:26;23.58;;;13.10;;
54384;SDS011;40284;52.878;5.998;2022-10-31T00:08:57;21.50;;;12.45;;
54384;SDS011;40284;52.878;5.998;2022-10-31T00:11:23;23.23;;;13.60;;
54384;SDS011;40284;52.878;5.998;2022-10-31T00:13:50;23.70;;;13.68;;
54384;SDS011;40284;52.878;5.998;2022-10-31T00:16:20;24.90;;;12.93;;
54384;SDS011;40284;52.878;5.998;2022-10-31T00:18:53;23.55;;;12.43;;
54384;SDS011;40284;52.878;5.998;2022-10-31T00:21:20;22.15;;;11.65;;
54384;SDS011;40284;52.878;5.998;2022-10-31T00:23:46;22.08;;;11.80;;
54384;SDS011;40284;52.878;5.998;2022-10-31T00:26:12;19.50;;;12.32;;
54384;SDS011;40284;52.878;5.998;2022-10-31T00:28:38;20.25;;;12.32;;
54384;SDS011;40284;52.878;5.998;2022-10-31T00:31:06;24.15;;;12.82;;
54384;SDS011;40284;52.878;5.998;2022-10-31T00:33:33;17.48;;;12.45;;
54384;SDS011;40284;52.878;5.998;2022-10-31T00:35:59;19.58;;;11.23;;
54384;SDS011;40284;52.878;5.998;2022-10-31T00:38:25;21.02;;;13.88;;
54384;SDS011;40284;52.878;5.998;2022-10-31T00:40:51;20.00;;;13.15;;
54384;SDS011;40284;52.878;5.998;2022-10-31T00:43:17;26.25;;;13.85;;
54384;SDS011;40284;52.878;5.998;2022-10-31T00:45:44;19.10;;;12.75;;
54384;SDS011;40284;52.878;5.998;2022-10-31T00:48:10;23.35;;;13.43;;
54384;SDS011;40284;52.878;5.998;2022-10-31T00:50:36;21.38;;;13.20;;
54384;SDS011;40284;52.878;5.998;2022-10-31T00:53:02;19.38;;;13.00;;
54384;SDS011;40284;52.878;5.998;2022-10-31T00:55:28;19.95;;;12.68;;
54384;SDS011;40284;52.878;5.998;2022-10-31T00:57:55;20.13;;;13.50;;
54384;SDS011;40284;52.878;5.998;2022-10-31T01:00:21;17.98;;;12.60;;
54384;SDS011;40284;52.878;5.998;2022-10-31T01:02:47;19.67;;;13.25;;
54384;SDS011;40284;52.878;5.998;2022-10-31T01:05:14;24.85;;;13.32;;
54384;SDS011;40284;52.878;5.998;2022-10-31T01:07:40;22.70;;;13.50;;
54384;SDS011;40284;52.878;5.998;2022-10-31T01:10:07;20.23;;;13.32;;
54384;SDS011;40284;52.878;5.998;2022-10-31T01:12:37;21.13;;;13.90;;
54384;SDS011;40284;52.878;5.998;2022-10-31T01:15:03;22.42;;;12.82;;
54384;SDS011;40284;52.878;5.998;2022-10-31T01:17:30;24.17;;;14.45;;
54384;SDS011;40284;52.878;5.998;2022-10-31T01:19:56;21.83;;;13.55;;
54384;SDS011;40284;52.878;5.998;2022-10-31T01:22:22;24.73;;;13.23;;
54384;SDS011;40284;52.878;5.998;2022-10-31T01:24:48;18.33;;;13.20;;
54384;SDS011;40284;52.878;5.998;2022-10-31T01:27:14;23.83;;;13.25;;
54384;SDS011;40284;52.878;5.998;2022-10-31T01:29:40;21.80;;;12.63;;
54384;SDS011;40284;52.878;5.998;2022-10-31T01:32:06;29.25;;;12.60;;
54384;SDS011;40284;52.878;5.998;2022-10-31T01:34:32;20.80;;;12.68;;
54384;SDS011;40284;52.878;5.998;2022-10-31T01:36:58;17.00;;;11.57;;
54384;SDS011;40284;52.878;5.998;2022-10-31T01:39:24;18.38;;;12.57;;
54384;SDS011;40284;52.878;5.998;2022-10-31T01:41:51;18.80;;;12.70;;
54384;SDS011;40284;52.878;5.998;2022-10-31T01:46:48;18.73;;;12.65;;
54384;SDS011;40284;52.878;5.998;2022-10-31T01:49:16;15.70;;;11.65;;
54384;SDS011;40284;52.878;5.998;2022-10-31T01:51:54;18.55;;;11.85;;
54384;SDS011;40284;52.878;5.998;2022-10-31T01:54:21;16.33;;;11.32;;
54384;SDS011;40284;52.878;5.998;2022-10-31T01:56:50;18.35;;;11.65;;
54384;SDS011;40284;52.878;5.998;2022-10-31T01:59:18;27.20;;;12.68;;
54384;SDS011;40284;52.878;5.998;2022-10-31T02:01:45;20.05;;;12.25;;
54384;SDS011;40284;52.878;5.998;2022-10-31T02:04:12;16.23;;;12.10;;
54384;SDS011;40284;52.878;5.998;2022-10-31T02:06:58;21.23;;;11.90;;
54384;SDS011;40284;52.878;5.998;2022-10-31T02:09:25;18.73;;;12.30;;
54384;SDS011;40284;52.878;5.998;2022-10-31T02:11:52;17.20;;;11.93;;
54384;SDS011;40284;52.878;5.998;2022-10-31T02:14:21;22.55;;;12.60;;
54384;SDS011;40284;52.878;5.998;2022-10-31T02:16:48;20.10;;;11.95;;
54384;SDS011;40284;52.878;5.998;2022-10-31T02:19:15;16.83;;;11.80;;
54384;SDS011;40284;52.878;5.998;2022-10-31T02:24:31;26.88;;;13.55;;
54384;SDS011;40284;52.878;5.998;2022-10-31T02:32:18;19.50;;;12.45;;
54384;SDS011;40284;52.878;5.998;2022-10-31T02:45:13;22.80;;;13.90;;
54384;SDS011;40284;52.878;5.998;2022-10-31T02:47:39;19.27;;;11.65;;
54384;SDS011;40284;52.878;5.998;2022-10-31T02:50:21;21.75;;;12.32;;
54384;SDS011;40284;52.878;5.998;2022-10-31T02:52:51;17.10;;;12.18;;
54384;SDS011;40284;52.878;5.998;2022-10-31T02:57:57;17.80;;;13.43;;
54384;SDS011;40284;52.878;5.998;2022-10-31T03:00:24;16.58;;;12.88;;
54384;SDS011;40284;52.878;5.998;2022-10-31T03:11:06;20.63;;;13.40;;
54384;SDS011;40284;52.878;5.998;2022-10-31T03:18:40;21.02;;;13.40;;
54384;SDS011;40284;52.878;5.998;2022-10-31T03:21:29;19.50;;;14.32;;
54384;SDS011;40284;52.878;5.998;2022-10-31T03:23:58;18.38;;;14.68;;
54384;SDS011;40284;52.878;5.998;2022-10-31T03:26:25;20.17;;;14.82;;
54384;SDS011;40284;52.878;5.998;2022-10-31T03:28:53;17.95;;;14.13;;
54384;SDS011;40284;52.878;5.998;2022-10-31T03:31:20;19.20;;;13.55;;
54384;SDS011;40284;52.878;5.998;2022-10-31T03:33:48;20.38;;;13.35;;
54384;SDS011;40284;52.878;5.998;2022-10-31T03:36:15;21.67;;;13.32;;
54384;SDS011;40284;52.878;5.998;2022-10-31T03:38:42;19.02;;;12.90;;
54384;SDS011;40284;52.878;5.998;2022-10-31T03:41:13;20.35;;;14.50;;
54384;SDS011;40284;52.878;5.998;2022-10-31T03:43:42;19.75;;;14.48;;
54384;SDS011;40284;52.878;5.998;2022-10-31T03:46:09;19.70;;;13.55;;
54384;SDS011;40284;52.878;5.998;2022-10-31T03:48:36;18.67;;;13.73;;
54384;SDS011;40284;52.878;5.998;2022-10-31T03:54:08;20.02;;;13.13;;
54384;SDS011;40284;52.878;5.998;2022-10-31T03:56:42;17.17;;;12.93;;
54384;SDS011;40284;52.878;5.998;2022-10-31T03:59:20;22.50;;;13.88;;
54384;SDS011;40284;52.878;5.998;2022-10-31T04:01:48;18.80;;;13.98;;
54384;SDS011;40284;52.878;5.998;2022-10-31T04:04:15;22.88;;;13.82;;
54384;SDS011;40284;52.878;5.998;2022-10-31T04:06:41;21.02;;;13.38;;
54384;SDS011;40284;52.878;5.998;2022-10-31T04:09:08;18.50;;;14.05;;
54384;SDS011;40284;52.878;5.998;2022-10-31T04:11:36;22.00;;;14.60;;
54384;SDS011;40284;52.878;5.998;2022-10-31T04:14:02;21.75;;;14.50;;
54384;SDS011;40284;52.878;5.998;2022-10-31T04:16:29;25.48;;;13.80;;
54384;SDS011;40284;52.878;5.998;2022-10-31T04:18:55;22.17;;;14.27;;
54384;SDS011;40284;52.878;5.998;2022-10-31T04:21:28;21.88;;;15.48;;
54384;SDS011;40284;52.878;5.998;2022-10-31T04:23:54;19.65;;;14.07;;
54384;SDS011;40284;52.878;5.998;2022-10-31T04:26:21;19.80;;;14.80;;
54384;SDS011;40284;52.878;5.998;2022-10-31T04:28:47;20.10;;;14.63;;
54384;SDS011;40284;52.878;5.998;2022-10-31T04:31:13;17.83;;;13.35;;
54384;SDS011;40284;52.878;5.998;2022-10-31T04:33:39;19.45;;;14.77;;
54384;SDS011;40284;52.878;5.998;2022-10-31T04:36:06;22.48;;;15.05;;
54384;SDS011;40284;52.878;5.998;2022-10-31T04:38:32;21.90;;;14.48;;
54384;SDS011;40284;52.878;5.998;2022-10-31T04:40:58;20.27;;;14.45;;
54384;SDS011;40284;52.878;5.998;2022-10-31T04:43:24;20.75;;;14.95;;
54384;SDS011;40284;52.878;5.998;2022-10-31T04:45:50;20.98;;;14.52;;
54384;SDS011;40284;52.878;5.998;2022-10-31T04:48:16;20.75;;;15.63;;
54384;SDS011;40284;52.878;5.998;2022-10-31T04:50:42;22.65;;;14.30;;
54384;SDS011;40284;52.878;5.998;2022-10-31T04:53:08;22.80;;;15.02;;
54384;SDS011;40284;52.878;5.998;2022-10-31T04:55:35;23.92;;;15.60;;
54384;SDS011;40284;52.878;5.998;2022-10-31T04:58:01;18.02;;;14.80;;
54384;SDS011;40284;52.878;5.998;2022-10-31T05:00:27;22.88;;;15.18;;
54384;SDS011;40284;52.878;5.998;2022-10-31T05:02:54;21.67;;;15.00;;
54384;SDS011;40284;52.878;5.998;2022-10-31T05:05:24;23.63;;;15.27;;
54384;SDS011;40284;52.878;5.998;2022-10-31T05:07:51;22.70;;;14.73;;
54384;SDS011;40284;52.878;5.998;2022-10-31T05:10:18;21.00;;;16.05;;
54384;SDS011;40284;52.878;5.998;2022-10-31T05:12:45;21.08;;;15.00;;
54384;SDS011;40284;52.878;5.998;2022-10-31T05:15:12;24.10;;;15.75;;
54384;SDS011;40284;52.878;5.998;2022-10-31T05:17:39;27.10;;;17.15;;
54384;SDS011;40284;52.878;5.998;2022-10-31T05:20:05;22.67;;;16.02;;
54384;SDS011;40284;52.878;5.998;2022-10-31T05:22:31;23.40;;;15.77;;
54384;SDS011;40284;52.878;5.998;2022-10-31T05:24:57;25.02;;;16.40;;
54384;SDS011;40284;52.878;5.998;2022-10-31T05:27:23;19.83;;;14.90;;
54384;SDS011;40284;52.878;5.998;2022-10-31T05:29:49;18.60;;;15.05;;
54384;SDS011;40284;52.878;5.998;2022-10-31T05:32:15;23.17;;;15.82;;
54384;SDS011;40284;52.878;5.998;2022-10-31T05:34:41;23.20;;;17.52;;
54384;SDS011;40284;52.878;5.998;2022-10-31T05:37:07;26.42;;;16.23;;
54384;SDS011;40284;52.878;5.998;2022-10-31T05:39:33;25.45;;;17.10;;
54384;SDS011;40284;52.878;5.998;2022-10-31T05:41:59;22.35;;;16.27;;
54384;SDS011;40284;52.878;5.998;2022-10-31T05:44:26;24.33;;;17.77;;
54384;SDS011;40284;52.878;5.998;2022-10-31T05:46:52;22.88;;;18.50;;
54384;SDS011;40284;52.878;5.998;2022-10-31T05:49:18;23.15;;;17.92;;
54384;SDS011;40284;52.878;5.998;2022-10-31T05:51:44;23.35;;;17.75;;
54384;SDS011;40284;52.878;5.998;2022-10-31T05:54:10;25.77;;;17.77;;
54384;SDS011;40284;52.878;5.998;2022-10-31T05:56:36;24.45;;;17.08;;
54384;SDS011;40284;52.878;5.998;2022-10-31T05:59:02;28.33;;;18.65;;
54384;SDS011;40284;52.878;5.998;2022-10-31T06:01:28;20.20;;;16.52;;
54384;SDS011;40284;52.878;5.998;2022-10-31T06:03:54;24.23;;;19.02;;
54384;SDS011;40284;52.878;5.998;2022-10-31T06:06:20;26.00;;;18.90;;
54384;SDS011;40284;52.878;5.998;2022-10-31T06:08:46;32.60;;;21.10;;
54384;SDS011;40284;52.878;5.998;2022-10-31T06:11:12;20.58;;;16.98;;
54384;SDS011;40284;52.878;5.998;2022-10-31T06:13:38;24.83;;;18.13;;
54384;SDS011;40284;52.878;5.998;2022-10-31T06:16:04;27.65;;;19.35;;
54384;SDS011;40284;52.878;5.998;2022-10-31T06:18:30;27.55;;;21.08;;
54384;SDS011;40284;52.878;5.998;2022-10-31T06:20:56;27.50;;;19.13;;
54384;SDS011;40284;52.878;5.998;2022-10-31T06:23:22;25.30;;;18.58;;
54384;SDS011;40284;52.878;5.998;2022-10-31T06:25:49;26.23;;;19.83;;
54384;SDS011;40284;52.878;5.998;2022-10-31T06:28:15;28.27;;;19.67;;
54384;SDS011;40284;52.878;5.998;2022-10-31T06:30:41;25.42;;;19.33;;
54384;SDS011;40284;52.878;5.998;2022-10-31T06:33:07;26.80;;;18.95;;
54384;SDS011;40284;52.878;5.998;2022-10-31T06:35:34;25.27;;;19.98;;
54384;SDS011;40284;52.878;5.998;2022-10-31T06:38:00;26.83;;;18.88;;
54384;SDS011;40284;52.878;5.998;2022-10-31T06:40:26;30.15;;;19.40;;
54384;SDS011;40284;52.878;5.998;2022-10-31T06:42:56;23.77;;;18.90;;
54384;SDS011;40284;52.878;5.998;2022-10-31T06:45:22;24.10;;;18.73;;
54384;SDS011;40284;52.878;5.998;2022-10-31T06:47:52;27.05;;;19.63;;
54384;SDS011;40284;52.878;5.998;2022-10-31T06:50:18;24.98;;;18.38;;
54384;SDS011;40284;52.878;5.998;2022-10-31T06:52:49;26.25;;;19.15;;
54384;SDS011;40284;52.878;5.998;2022-10-31T06:55:15;27.70;;;19.00;;
54384;SDS011;40284;52.878;5.998;2022-10-31T06:57:42;23.35;;;18.92;;
54384;SDS011;40284;52.878;5.998;2022-10-31T07:00:08;28.73;;;18.40;;
54384;SDS011;40284;52.878;5.998;2022-10-31T07:02:34;23.60;;;18.08;;
54384;SDS011;40284;52.878;5.998;2022-10-31T07:05:00;27.75;;;18.48;;
54384;SDS011;40284;52.878;5.998;2022-10-31T07:07:26;27.67;;;18.58;;
54384;SDS011;40284;52.878;5.998;2022-10-31T07:09:52;25.23;;;17.83;;
54384;SDS011;40284;52.878;5.998;2022-10-31T07:12:18;28.27;;;17.75;;
54384;SDS011;40284;52.878;5.998;2022-10-31T07:14:44;24.73;;;17.77;;
54384;SDS011;40284;52.878;5.998;2022-10-31T07:17:10;26.48;;;17.33;;
54384;SDS011;40284;52.878;5.998;2022-10-31T07:19:36;25.77;;;18.05;;
54384;SDS011;40284;52.878;5.998;2022-10-31T07:22:02;25.05;;;17.35;;
54384;SDS011;40284;52.878;5.998;2022-10-31T07:24:28;26.55;;;18.40;;
54384;SDS011;40284;52.878;5.998;2022-10-31T07:26:55;26.33;;;17.50;;
54384;SDS011;40284;52.878;5.998;2022-10-31T07:29:21;27.35;;;17.90;;
54384;SDS011;40284;52.878;5.998;2022-10-31T07:31:47;27.27;;;18.50;;
54384;SDS011;40284;52.878;5.998;2022-10-31T07:34:13;23.95;;;18.10;;
54384;SDS011;40284;52.878;5.998;2022-10-31T07:36:39;25.38;;;18.48;;
54384;SDS011;40284;52.878;5.998;2022-10-31T07:39:05;30.63;;;17.20;;
54384;SDS011;40284;52.878;5.998;2022-10-31T07:41:31;24.10;;;17.50;;
54384;SDS011;40284;52.878;5.998;2022-10-31T07:43:58;22.45;;;17.42;;
54384;SDS011;40284;52.878;5.998;2022-10-31T07:46:24;26.08;;;18.60;;
54384;SDS011;40284;52.878;5.998;2022-10-31T07:48:50;26.88;;;18.58;;
54384;SDS011;40284;52.878;5.998;2022-10-31T07:51:16;27.08;;;18.38;;
54384;SDS011;40284;52.878;5.998;2022-10-31T07:53:42;20.63;;;15.52;;
54384;SDS011;40284;52.878;5.998;2022-10-31T07:56:08;27.67;;;17.73;;
54384;SDS011;40284;52.878;5.998;2022-10-31T07:58:34;23.63;;;17.73;;
54384;SDS011;40284;52.878;5.998;2022-10-31T08:01:00;25.67;;;17.45;;
54384;SDS011;40284;52.878;5.998;2022-10-31T08:03:26;29.90;;;18.40;;
54384;SDS011;40284;52.878;5.998;2022-10-31T08:05:52;23.55;;;18.95;;
54384;SDS011;40284;52.878;5.998;2022-10-31T08:08:18;24.60;;;18.92;;
54384;SDS011;40284;52.878;5.998;2022-10-31T08:10:44;24.08;;;18.83;;
54384;SDS011;40284;52.878;5.998;2022-10-31T08:13:12;25.15;;;18.45;;
54384;SDS011;40284;52.878;5.998;2022-10-31T08:15:38;25.17;;;19.25;;
54384;SDS011;40284;52.878;5.998;2022-10-31T08:18:06;26.55;;;18.98;;
54384;SDS011;40284;52.878;5.998;2022-10-31T08:20:36;28.23;;;18.98;;
54384;SDS011;40284;52.878;5.998;2022-10-31T08:23:02;27.55;;;19.27;;
54384;SDS011;40284;52.878;5.998;2022-10-31T08:25:30;24.13;;;18.38;;
54384;SDS011;40284;52.878;5.998;2022-10-31T08:27:56;26.40;;;18.98;;
54384;SDS011;40284;52.878;5.998;2022-10-31T08:30:24;25.67;;;17.98;;
54384;SDS011;40284;52.878;5.998;2022-10-31T08:32:58;26.40;;;19.20;;
54384;SDS011;40284;52.878;5.998;2022-10-31T08:35:24;26.15;;;16.30;;
54384;SDS011;40284;52.878;5.998;2022-10-31T08:37:56;22.45;;;16.58;;
54384;SDS011;40284;52.878;5.998;2022-10-31T08:40:23;22.48;;;16.63;;
54384;SDS011;40284;52.878;5.998;2022-10-31T08:42:56;23.73;;;17.27;;
54384;SDS011;40284;52.878;5.998;2022-10-31T08:45:22;24.80;;;17.50;;
54384;SDS011;40284;52.878;5.998;2022-10-31T08:47:48;24.42;;;16.85;;
54384;SDS011;40284;52.878;5.998;2022-10-31T08:50:14;20.27;;;16.38;;
54384;SDS011;40284;52.878;5.998;2022-10-31T08:52:40;23.48;;;17.33;;
54384;SDS011;40284;52.878;5.998;2022-10-31T08:55:06;22.98;;;17.42;;
54384;SDS011;40284;52.878;5.998;2022-10-31T08:57:33;24.15;;;16.77;;
54384;SDS011;40284;52.878;5.998;2022-10-31T08:59:59;24.38;;;17.08;;
54384;SDS011;40284;52.878;5.998;2022-10-31T09:02:25;27.13;;;17.52;;
54384;SDS011;40284;52.878;5.998;2022-10-31T09:04:51;23.55;;;15.77;;
54384;SDS011;40284;52.878;5.998;2022-10-31T09:07:17;26.25;;;16.88;;
54384;SDS011;40284;52.878;5.998;2022-10-31T09:09:43;20.42;;;15.00;;
54384;SDS011;40284;52.878;5.998;2022-10-31T09:12:09;21.52;;;14.88;;
54384;SDS011;40284;52.878;5.998;2022-10-31T09:14:35;22.20;;;16.65;;
54384;SDS011;40284;52.878;5.998;2022-10-31T09:17:01;20.23;;;14.50;;
54384;SDS011;40284;52.878;5.998;2022-10-31T09:19:27;23.52;;;15.77;;
54384;SDS011;40284;52.878;5.998;2022-10-31T09:21:53;22.23;;;16.80;;
54384;SDS011;40284;52.878;5.998;2022-10-31T09:24:20;26.42;;;17.80;;
54384;SDS011;40284;52.878;5.998;2022-10-31T09:26:46;26.15;;;17.90;;
54384;SDS011;40284;52.878;5.998;2022-10-31T09:29:12;27.83;;;18.00;;
54384;SDS011;40284;52.878;5.998;2022-10-31T09:31:38;21.75;;;18.55;;
54384;SDS011;40284;52.878;5.998;2022-10-31T09:34:04;28.13;;;19.10;;
54384;SDS011;40284;52.878;5.998;2022-10-31T09:36:30;27.13;;;21.05;;
54384;SDS011;40284;52.878;5.998;2022-10-31T09:38:56;31.52;;;23.00;;
54384;SDS011;40284;52.878;5.998;2022-10-31T09:54:35;32.70;;;25.67;;
54384;SDS011;40284;52.878;5.998;2022-10-31T09:57:03;32.08;;;26.02;;
54384;SDS011;40284;52.878;5.998;2022-10-31T09:59:36;36.60;;;25.60;;
54384;SDS011;40284;52.878;5.998;2022-10-31T10:02:04;31.15;;;23.60;;
54384;SDS011;40284;52.878;5.998;2022-10-31T10:04:38;39.35;;;26.65;;
54384;SDS011;40284;52.878;5.998;2022-10-31T10:10:17;33.22;;;24.83;;
54384;SDS011;40284;52.878;5.998;2022-10-31T10:17:41;37.03;;;26.10;;
54384;SDS011;40284;52.878;5.998;2022-10-31T10:20:11;34.25;;;25.63;;
54384;SDS011;40284;52.878;5.998;2022-10-31T10:25:20;33.40;;;24.08;;
54384;SDS011;40284;52.878;5.998;2022-10-31T10:33:08;34.53;;;24.58;;
54384;SDS011;40284;52.878;5.998;2022-10-31T10:35:40;33.30;;;22.17;;
54384;SDS011;40284;52.878;5.998;2022-10-31T10:38:23;30.50;;;22.73;;
54384;SDS011;40284;52.878;5.998;2022-10-31T10:40:50;30.88;;;21.17;;
54384;SDS011;40284;52.878;5.998;2022-10-31T10:43:26;30.33;;;22.80;;
54384;SDS011;40284;52.878;5.998;2022-10-31T10:48:44;30.13;;;22.60;;
54384;SDS011;40284;52.878;5.998;2022-10-31T10:51:15;30.52;;;21.70;;
54384;SDS011;40284;52.878;5.998;2022-10-31T10:57:11;36.97;;;23.40;;
54384;SDS011;40284;52.878;5.998;2022-10-31T10:59:13;30.73;;;23.27;;
54384;SDS011;40284;52.878;5.998;2022-10-31T11:01:39;34.53;;;23.23;;
54384;SDS011;40284;52.878;5.998;2022-10-31T11:04:19;37.28;;;23.42;;
54384;SDS011;40284;52.878;5.998;2022-10-31T11:06:56;29.52;;;21.92;;
54384;SDS011;40284;52.878;5.998;2022-10-31T11:09:22;30.30;;;20.58;;
54384;SDS011;40284;52.878;5.998;2022-10-31T11:11:48;27.05;;;17.90;;
54384;SDS011;40284;52.878;5.998;2022-10-31T11:14:15;30.35;;;19.42;;
54384;SDS011;40284;52.878;5.998;2022-10-31T11:16:43;26.33;;;18.23;;
54384;SDS011;40284;52.878;5.998;2022-10-31T11:19:15;24.83;;;18.33;;
54384;SDS011;40284;52.878;5.998;2022-10-31T11:21:42;25.77;;;16.95;;
54384;SDS011;40284;52.878;5.998;2022-10-31T11:26:39;29.33;;;17.58;;
54384;SDS011;40284;52.878;5.998;2022-10-31T11:29:25;24.58;;;16.70;;
54384;SDS011;40284;52.878;5.998;2022-10-31T11:31:55;30.40;;;16.33;;
54384;SDS011;40284;52.878;5.998;2022-10-31T11:36:48;26.13;;;15.38;;
54384;SDS011;40284;52.878;5.998;2022-10-31T11:39:20;22.95;;;16.38;;
54384;SDS011;40284;52.878;5.998;2022-10-31T11:41:47;24.45;;;14.38;;
54384;SDS011;40284;52.878;5.998;2022-10-31T11:44:26;20.13;;;15.02;;
54384;SDS011;40284;52.878;5.998;2022-10-31T11:46:57;22.08;;;15.05;;
54384;SDS011;40284;52.878;5.998;2022-10-31T11:52:24;18.27;;;13.50;;
54384;SDS011;40284;52.878;5.998;2022-10-31T11:54:58;20.35;;;13.63;;
54384;SDS011;40284;52.878;5.998;2022-10-31T11:59:51;19.25;;;12.95;;
54384;SDS011;40284;52.878;5.998;2022-10-31T12:02:18;20.00;;;13.27;;
54384;SDS011;40284;52.878;5.998;2022-10-31T12:04:46;17.25;;;12.43;;
54384;SDS011;40284;52.878;5.998;2022-10-31T12:07:13;21.40;;;12.05;;
54384;SDS011;40284;52.878;5.998;2022-10-31T12:09:39;22.02;;;13.77;;
54384;SDS011;40284;52.878;5.998;2022-10-31T12:17:58;18.88;;;12.85;;
54384;SDS011;40284;52.878;5.998;2022-10-31T12:20:45;17.35;;;12.65;;
54384;SDS011;40284;52.878;5.998;2022-10-31T12:36:29;17.85;;;12.55;;
54384;SDS011;40284;52.878;5.998;2022-10-31T12:39:14;20.08;;;13.57;;
54384;SDS011;40284;52.878;5.998;2022-10-31T12:41:58;21.88;;;12.90;;
54384;SDS011;40284;52.878;5.998;2022-10-31T12:44:46;22.15;;;12.60;;
54384;SDS011;40284;52.878;5.998;2022-10-31T13:00:10;15.85;;;10.07;;
54384;SDS011;40284;52.878;5.998;2022-10-31T13:05:34;13.18;;;9.32;;
54384;SDS011;40284;52.878;5.998;2022-10-31T13:10:40;12.07;;;7.63;;
54384;SDS011;40284;52.878;5.998;2022-10-31T13:13:11;11.70;;;7.70;;
54384;SDS011;40284;52.878;5.998;2022-10-31T13:15:48;12.23;;;7.50;;
54384;SDS011;40284;52.878;5.998;2022-10-31T13:18:21;12.55;;;7.78;;
54384;SDS011;40284;52.878;5.998;2022-10-31T13:20:49;12.40;;;7.97;;
54384;SDS011;40284;52.878;5.998;2022-10-31T13:23:19;11.80;;;8.05;;
54384;SDS011;40284;52.878;5.998;2022-10-31T13:25:54;13.68;;;8.48;;
54384;SDS011;40284;52.878;5.998;2022-10-31T13:30:49;13.60;;;8.25;;
54384;SDS011;40284;52.878;5.998;2022-10-31T13:33:20;17.58;;;12.77;;
54384;SDS011;40284;52.878;5.998;2022-10-31T13:46:20;11.40;;;8.68;;
54384;SDS011;40284;52.878;5.998;2022-10-31T13:48:47;15.07;;;9.70;;
54384;SDS011;40284;52.878;5.998;2022-10-31T13:51:13;16.02;;;8.80;;
54384;SDS011;40284;52.878;5.998;2022-10-31T13:56:22;18.63;;;12.45;;
54384;SDS011;40284;52.878;5.998;2022-10-31T14:01:21;18.98;;;13.43;;
54384;SDS011;40284;52.878;5.998;2022-10-31T14:03:55;11.70;;;8.05;;
54384;SDS011;40284;52.878;5.998;2022-10-31T14:06:22;15.57;;;8.77;;
54384;SDS011;40284;52.878;5.998;2022-10-31T14:08:50;14.38;;;8.35;;
54384;SDS011;40284;52.878;5.998;2022-10-31T14:11:22;13.32;;;7.70;;
54384;SDS011;40284;52.878;5.998;2022-10-31T14:13:50;13.90;;;8.52;;
54384;SDS011;40284;52.878;5.998;2022-10-31T14:16:20;13.45;;;8.02;;
54384;SDS011;40284;52.878;5.998;2022-10-31T14:18:50;14.70;;;7.82;;
54384;SDS011;40284;52.878;5.998;2022-10-31T14:23:49;12.30;;;8.20;;
54384;SDS011;40284;52.878;5.998;2022-10-31T14:26:17;15.57;;;7.63;;
54384;SDS011;40284;52.878;5.998;2022-10-31T14:28:43;15.20;;;9.05;;
54384;SDS011;40284;52.878;5.998;2022-10-31T14:39:46;24.48;;;19.80;;
54384;SDS011;40284;52.878;5.998;2022-10-31T14:41:53;15.45;;;9.82;;
54384;SDS011;40284;52.878;5.998;2022-10-31T14:49:51;19.00;;;10.57;;
54384;SDS011;40284;52.878;5.998;2022-10-31T14:52:24;18.25;;;11.23;;
54384;SDS011;40284;52.878;5.998;2022-10-31T14:54:51;15.75;;;9.90;;
54384;SDS011;40284;52.878;5.998;2022-10-31T14:57:20;16.80;;;11.48;;
54384;SDS011;40284;52.878;5.998;2022-10-31T14:59:58;18.70;;;11.15;;
54384;SDS011;40284;52.878;5.998;2022-10-31T15:02:33;18.92;;;10.80;;
54384;SDS011;40284;52.878;5.998;2022-10-31T15:05:03;25.23;;;11.93;;
54384;SDS011;40284;52.878;5.998;2022-10-31T15:07:32;17.25;;;11.50;;
54384;SDS011;40284;52.878;5.998;2022-10-31T15:10:03;18.05;;;10.40;;
54384;SDS011;40284;52.878;5.998;2022-10-31T15:12:31;16.13;;;10.85;;
54384;SDS011;40284;52.878;5.998;2022-10-31T15:14:57;16.95;;;10.25;;
54384;SDS011;40284;52.878;5.998;2022-10-31T15:17:24;17.00;;;9.63;;
54384;SDS011;40284;52.878;5.998;2022-10-31T15:19:51;14.55;;;9.93;;
54384;SDS011;40284;52.878;5.998;2022-10-31T15:22:22;21.83;;;16.65;;
54384;SDS011;40284;52.878;5.998;2022-10-31T15:24:55;36.22;;;30.70;;
54384;SDS011;40284;52.878;5.998;2022-10-31T15:27:24;29.88;;;23.85;;
54384;SDS011;40284;52.878;5.998;2022-10-31T15:29:55;20.77;;;13.43;;
54384;SDS011;40284;52.878;5.998;2022-10-31T15:32:26;20.23;;;15.52;;
54384;SDS011;40284;52.878;5.998;2022-10-31T15:34:52;17.33;;;11.18;;
54384;SDS011;40284;52.878;5.998;2022-10-31T15:37:21;13.90;;;10.68;;
54384;SDS011;40284;52.878;5.998;2022-10-31T15:39:48;21.60;;;10.98;;
54384;SDS011;40284;52.878;5.998;2022-10-31T15:42:30;17.77;;;10.20;;
54384;SDS011;40284;52.878;5.998;2022-10-31T15:47:33;17.33;;;10.57;;
54384;SDS011;40284;52.878;5.998;2022-10-31T15:50:06;17.80;;;11.35;;
54384;SDS011;40284;52.878;5.998;2022-10-31T15:52:44;16.48;;;10.23;;
54384;SDS011;40284;52.878;5.998;2022-10-31T15:57:44;23.35;;;12.43;;
54384;SDS011;40284;52.878;5.998;2022-10-31T16:02:50;29.65;;;18.40;;
54384;SDS011;40284;52.878;5.998;2022-10-31T16:05:17;27.48;;;17.13;;
54384;SDS011;40284;52.878;5.998;2022-10-31T16:07:50;41.90;;;24.48;;
54384;SDS011;40284;52.878;5.998;2022-10-31T16:12:47;37.88;;;21.08;;
54384;SDS011;40284;52.878;5.998;2022-10-31T16:15:14;39.40;;;24.08;;
54384;SDS011;40284;52.878;5.998;2022-10-31T16:17:42;57.60;;;32.80;;
54384;SDS011;40284;52.878;5.998;2022-10-31T16:20:16;58.45;;;31.35;;
54384;SDS011;40284;52.878;5.998;2022-10-31T16:22:46;32.35;;;17.25;;
54384;SDS011;40284;52.878;5.998;2022-10-31T16:25:15;59.70;;;29.33;;
54384;SDS011;40284;52.878;5.998;2022-10-31T16:27:47;47.03;;;24.25;;
54384;SDS011;40284;52.878;5.998;2022-10-31T16:32:56;38.22;;;19.10;;
54384;SDS011;40284;52.878;5.998;2022-10-31T16:37:50;56.35;;;30.80;;
54384;SDS011;40284;52.878;5.998;2022-10-31T16:40:16;74.15;;;40.28;;
54384;SDS011;40284;52.878;5.998;2022-10-31T16:42:43;39.13;;;19.75;;
54384;SDS011;40284;52.878;5.998;2022-10-31T16:45:14;48.47;;;23.08;;
54384;SDS011;40284;52.878;5.998;2022-10-31T16:47:41;51.72;;;24.75;;
54384;SDS011;40284;52.878;5.998;2022-10-31T16:50:14;54.42;;;26.10;;
54384;SDS011;40284;52.878;5.998;2022-10-31T16:52:40;41.50;;;28.10;;
54384;SDS011;40284;52.878;5.998;2022-10-31T16:55:10;29.00;;;21.98;;
54384;SDS011;40284;52.878;5.998;2022-10-31T16:57:36;40.40;;;26.38;;
54384;SDS011;40284;52.878;5.998;2022-10-31T17:00:02;24.98;;;16.15;;
54384;SDS011;40284;52.878;5.998;2022-10-31T17:02:29;25.40;;;18.88;;
54384;SDS011;40284;52.878;5.998;2022-10-31T17:04:55;19.70;;;14.15;;
54384;SDS011;40284;52.878;5.998;2022-10-31T17:07:21;14.55;;;10.25;;
54384;SDS011;40284;52.878;5.998;2022-10-31T17:09:47;17.58;;;12.30;;
54384;SDS011;40284;52.878;5.998;2022-10-31T17:12:14;17.83;;;10.88;;
54384;SDS011;40284;52.878;5.998;2022-10-31T17:14:41;16.27;;;12.00;;
54384;SDS011;40284;52.878;5.998;2022-10-31T17:17:08;14.40;;;10.30;;
54384;SDS011;40284;52.878;5.998;2022-10-31T17:19:35;18.55;;;11.45;;
54384;SDS011;40284;52.878;5.998;2022-10-31T17:22:01;14.82;;;11.13;;